Time;durP1;ratioP1;P1;durP2;ratioP2;P2;SDS_P1;SDS_P2;PMS_P1;PMS_P2;Temp;Humidity;BMP_temperature;BMP_pressure;BME280_temperature;BME280_humidity;BME280_pressure;Samples;Min_cycle;Max_cycle;Signal;HPM_P1;HPM_P2
2021/06/07 00:02:16;;;;;;;;;;;20.40;64.40;;;;;;5052382;28;1118;-73
2021/06/07 00:04:41;;;;;;;;;;;20.40;64.40;;;;;;5051035;28;1084;-73
2021/06/07 00:07:07;;;;;;;;;;;20.40;64.40;;;;;;5051222;28;1072;-73
2021/06/07 00:09:32;;;;;;;;;;;20.40;64.40;;;;;;5051236;28;1975;-73
2021/06/07 00:11:59;;;;;;;;;;;20.40;64.40;;;;;;5063554;22;2104;-65
2021/06/07 00:14:26;;;;;;;;;;;20.40;64.40;;;;;;5026700;28;999;-65
2021/06/07 00:16:51;;;;;;;;;;;20.40;64.50;;;;;;5032357;28;1063;-65
2021/06/07 00:19:17;;;;;;;;;;;20.40;64.40;;;;;;5032463;28;1178;-65
2021/06/07 00:21:45;;;;;;;;;;;20.40;64.50;;;;;;5037952;28;1394;-65
2021/06/07 00:24:11;;;;;;;;;;;20.40;64.50;;;;;;5032247;28;1131;-65
2021/06/07 00:26:36;;;;;;;;;;;20.40;64.50;;;;;;5031202;28;1215;-65
2021/06/07 00:29:02;;;;;;;;;;;20.40;64.50;;;;;;5032487;28;1055;-66
2021/06/07 00:31:27;;;;;;;;;;;20.40;64.50;;;;;;5044385;28;1906;-65
2021/06/07 00:33:53;;;;;;;;;;;20.40;64.50;;;;;;5037352;28;1095;-65
2021/06/07 00:36:22;;;;;;;;;;;20.40;64.50;;;;;;5034823;28;1103;-65
2021/06/07 00:38:50;;;;;;;;;;;20.40;64.50;;;;;;5034655;28;1207;-65
2021/06/07 00:41:16;;;;;;;;;;;20.40;64.50;;;;;;5034772;28;1388;-68
2021/06/07 00:43:41;;;;;;;;;;;20.40;64.50;;;;;;5035331;28;1126;-65
2021/06/07 00:46:07;;;;;;;;;;;20.40;64.50;;;;;;5035759;28;1055;-65
2021/06/07 00:48:33;;;;;;;;;;;20.40;64.50;;;;;;5034431;28;1116;-67
2021/06/07 00:50:59;;;;;;;;;;;20.40;64.50;;;;;;5034615;28;1894;-65
2021/06/07 00:53:24;;;;;;;;;;;20.40;64.60;;;;;;5035319;28;1158;-67
2021/06/07 00:55:57;;;;;;;;;;;20.40;64.60;;;;;;5035700;28;1068;-66
2021/06/07 00:58:23;;;;;;;;;;;20.40;64.60;;;;;;5034355;28;1108;-67
2021/06/07 01:00:48;;;;;;;;;;;20.40;64.60;;;;;;5035620;28;1064;-65
2021/06/07 01:03:14;;;;;;;;;;;20.40;64.60;;;;;;5033800;28;1232;-65
2021/06/07 01:05:39;;;;;;;;;;;20.40;64.60;;;;;;5035589;28;1079;-65
2021/06/07 01:08:05;;;;;;;;;;;20.40;64.60;;;;;;5033963;28;1138;-65
2021/06/07 01:10:31;;;;;;;;;;;20.40;64.70;;;;;;5035263;28;1947;-65
2021/06/07 01:12:59;;;;;;;;;;;20.40;64.70;;;;;;5033499;28;1346;-65
2021/06/07 01:15:24;;;;;;;;;;;20.40;64.70;;;;;;5035358;28;1146;-65
2021/06/07 01:17:50;;;;;;;;;;;20.40;64.70;;;;;;5035035;28;1170;-65
2021/06/07 01:20:18;;;;;;;;;;;20.40;64.70;;;;;;5039061;28;1115;-65
2021/06/07 01:22:44;;;;;;;;;;;20.40;64.70;;;;;;5035073;28;1311;-66
2021/06/07 01:25:14;;;;;;;;;;;20.40;64.70;;;;;;5033530;28;1167;-65
2021/06/07 01:27:39;;;;;;;;;;;20.40;64.70;;;;;;5034975;28;1108;-65
2021/06/07 01:30:11;;;;;;;;;;;20.40;64.70;;;;;;5034880;28;1898;-65
2021/06/07 01:32:37;;;;;;;;;;;20.40;64.70;;;;;;5046279;28;1338;-65
2021/06/07 01:35:03;;;;;;;;;;;20.40;64.70;;;;;;5034988;28;1126;-66
2021/06/07 01:37:28;;;;;;;;;;;20.40;64.70;;;;;;5033465;28;1072;-67
2021/06/07 01:39:54;;;;;;;;;;;20.40;64.70;;;;;;5034641;28;1142;-65
2021/06/07 01:42:19;;;;;;;;;;;20.40;64.70;;;;;;5034712;28;1244;-66
2021/06/07 01:44:44;;;;;;;;;;;20.40;65.50;;;;;;5034476;28;1051;-66
2021/06/07 01:47:10;;;;;;;;;;;20.40;64.80;;;;;;5034672;28;1071;-65
2021/06/07 01:49:35;;;;;;;;;;;20.40;64.80;;;;;;5034758;28;1906;-65
2021/06/07 01:52:01;;;;;;;;;;;20.40;64.80;;;;;;5034442;28;1298;-67
2021/06/07 01:54:26;;;;;;;;;;;20.40;64.80;;;;;;5032764;28;1192;-65
2021/06/07 01:56:52;;;;;;;;;;;20.40;64.80;;;;;;5034435;28;1115;-66
2021/06/07 01:59:17;;;;;;;;;;;20.40;64.80;;;;;;5034441;28;1107;-67
2021/06/07 02:01:42;;;;;;;;;;;20.40;64.80;;;;;;5034306;28;1195;-65
2021/06/07 02:04:08;;;;;;;;;;;20.40;64.80;;;;;;5033281;28;1065;-66
2021/06/07 02:06:33;;;;;;;;;;;20.40;64.80;;;;;;5034266;28;1167;-67
2021/06/07 02:08:59;;;;;;;;;;;20.40;65.60;;;;;;5032774;28;1310;-65
2021/06/07 02:11:25;;;;;;;;;;;20.40;64.80;;;;;;5032657;28;1898;-65
2021/06/07 02:13:51;;;;;;;;;;;20.40;64.90;;;;;;5032642;28;1266;-65
2021/06/07 02:16:17;;;;;;;;;;;20.40;64.90;;;;;;5012959;28;1242;-65
2021/06/07 02:18:43;;;;;;;;;;;20.40;64.90;;;;;;5025142;28;1120;-66
2021/06/07 02:21:08;;;;;;;;;;;20.40;64.80;;;;;;5039122;28;1356;-66
2021/06/07 02:23:34;;;;;;;;;;;20.40;64.90;;;;;;5032063;28;1084;-68
2021/06/07 02:25:59;;;;;;;;;;;20.40;64.90;;;;;;5032659;28;1206;-65
2021/06/07 02:28:25;;;;;;;;;;;20.40;64.90;;;;;;5032539;28;1132;-65
2021/06/07 02:30:50;;;;;;;;;;;20.40;64.90;;;;;;5037084;28;1902;-67
2021/06/07 02:33:16;;;;;;;;;;;20.40;64.90;;;;;;5040260;28;1319;-65
2021/06/07 02:35:41;;;;;;;;;;;20.40;64.90;;;;;;5032487;28;1104;-65
2021/06/07 02:38:07;;;;;;;;;;;20.40;64.90;;;;;;5032171;28;1326;-66
2021/06/07 02:40:32;;;;;;;;;;;20.40;64.90;;;;;;5033592;28;1103;-65
2021/06/07 02:42:58;;;;;;;;;;;20.40;64.90;;;;;;5033293;28;1185;-66
2021/06/07 02:45:23;;;;;;;;;;;20.40;64.90;;;;;;5032132;28;1127;-65
2021/06/07 02:47:49;;;;;;;;;;;20.40;64.90;;;;;;5033506;28;1059;-65
2021/06/07 02:50:15;;;;;;;;;;;20.40;64.90;;;;;;5012554;28;1898;-68
2021/06/07 02:52:47;;;;;;;;;;;20.40;64.90;;;;;;5022733;28;1295;-68
2021/06/07 02:55:23;;;;;;;;;;;20.40;64.90;;;;;;5033269;28;1051;-65
2021/06/07 02:57:49;;;;;;;;;;;20.40;64.90;;;;;;5032256;28;1040;-65
2021/06/07 03:00:16;;;;;;;;;;;20.40;64.90;;;;;;5033379;28;1077;-66
2021/06/07 03:02:41;;;;;;;;;;;20.30;64.80;;;;;;5032008;28;1190;-65
2021/06/07 03:05:07;;;;;;;;;;;20.40;64.90;;;;;;5031782;28;1281;-65
2021/06/07 03:07:32;;;;;;;;;;;20.40;64.90;;;;;;5032589;28;1111;-65
2021/06/07 03:09:58;;;;;;;;;;;20.40;64.90;;;;;;5033134;28;1902;-65
2021/06/07 03:12:23;;;;;;;;;;;20.40;64.90;;;;;;5033020;28;1360;-65
2021/06/07 03:14:49;;;;;;;;;;;20.40;64.90;;;;;;5025873;28;1229;-65
2021/06/07 03:17:14;;;;;;;;;;;20.40;64.90;;;;;;5026557;28;1072;-66
2021/06/07 03:19:40;;;;;;;;;;;20.40;64.90;;;;;;5033005;28;1056;-65
2021/06/07 03:22:05;;;;;;;;;;;20.40;65.00;;;;;;5038435;28;1267;-65
2021/06/07 03:24:31;;;;;;;;;;;20.40;65.00;;;;;;5032701;28;1209;-65
2021/06/07 03:26:56;;;;;;;;;;;20.40;65.00;;;;;;5032803;28;1079;-65
2021/06/07 03:29:21;;;;;;;;;;;20.40;65.00;;;;;;5033023;28;1230;-65
2021/06/07 03:31:47;;;;;;;;;;;20.40;65.10;;;;;;5045007;28;1910;-65
2021/06/07 03:34:12;;;;;;;;;;;20.40;65.00;;;;;;5032367;28;1245;-66
2021/06/07 03:36:38;;;;;;;;;;;20.40;65.00;;;;;;5032740;28;1142;-65
2021/06/07 03:39:03;;;;;;;;;;;20.40;65.00;;;;;;5032785;28;1138;-66
2021/06/07 03:41:29;;;;;;;;;;;20.40;65.00;;;;;;5032796;28;1288;-68
2021/06/07 03:43:54;;;;;;;;;;;20.40;65.00;;;;;;5032625;28;1187;-65
2021/06/07 03:46:20;;;;;;;;;;;20.40;65.00;;;;;;5032603;28;1075;-66
2021/06/07 03:48:45;;;;;;;;;;;20.40;65.10;;;;;;5032366;28;1084;-67
2021/06/07 03:51:10;;;;;;;;;;;20.40;65.10;;;;;;5032378;28;1910;-65
2021/06/07 03:53:36;;;;;;;;;;;20.40;65.10;;;;;;5032609;28;1159;-66
2021/06/07 03:56:01;;;;;;;;;;;20.40;65.00;;;;;;5032726;28;1079;-68
2021/06/07 03:58:29;;;;;;;;;;;20.40;65.00;;;;;;5011481;28;1356;-65
2021/06/07 04:00:54;;;;;;;;;;;20.40;65.00;;;;;;5024414;28;1259;-65
2021/06/07 04:03:20;;;;;;;;;;;20.40;65.10;;;;;;5030947;28;1226;-66
2021/06/07 04:05:45;;;;;;;;;;;20.30;65.00;;;;;;5035926;28;1107;-65
2021/06/07 04:08:11;;;;;;;;;;;20.40;65.10;;;;;;5036388;28;1127;-66
2021/06/07 04:10:37;;;;;;;;;;;20.40;65.10;;;;;;5036566;28;1906;-66
2021/06/07 04:13:02;;;;;;;;;;;20.40;65.10;;;;;;5035970;28;1303;-65
2021/06/07 04:15:28;;;;;;;;;;;20.40;65.10;;;;;;5024078;28;1232;-65
2021/06/07 04:17:53;;;;;;;;;;;20.40;65.10;;;;;;5035300;28;1108;-66
2021/06/07 04:20:20;;;;;;;;;;;20.40;65.10;;;;;;5039163;28;1107;-65
2021/06/07 04:22:45;;;;;;;;;;;20.40;65.10;;;;;;5037420;28;1291;-66
2021/06/07 04:25:11;;;;;;;;;;;20.40;65.10;;;;;;5034778;28;1389;-66
2021/06/07 04:27:38;;;;;;;;;;;20.40;65.10;;;;;;5036327;28;1107;-65
2021/06/07 04:30:05;;;;;;;;;;;20.40;65.10;;;;;;5034758;28;1975;-65
2021/06/07 04:32:32;;;;;;;;;;;20.40;65.10;;;;;;5047253;28;1207;-68
2021/06/07 04:35:00;;;;;;;;;;;20.40;65.10;;;;;;5034709;28;1104;-65
2021/06/07 04:37:25;;;;;;;;;;;20.40;65.10;;;;;;5034611;28;1333;-66
2021/06/07 04:39:51;;;;;;;;;;;20.40;65.10;;;;;;5034730;28;1138;-65
2021/06/07 04:42:16;;;;;;;;;;;20.40;65.10;;;;;;5035906;28;1299;-65
2021/06/07 04:44:42;;;;;;;;;;;20.40;65.10;;;;;;5035572;28;1071;-66
2021/06/07 04:47:07;;;;;;;;;;;20.40;65.20;;;;;;5035636;28;1127;-66
2021/06/07 04:49:32;;;;;;;;;;;20.40;65.10;;;;;;5035680;28;1071;-66
2021/06/07 04:51:58;;;;;;;;;;;20.40;65.90;;;;;;5035507;28;1899;-66
2021/06/07 04:54:23;;;;;;;;;;;20.40;65.10;;;;;;5035458;28;1068;-65
2021/06/07 04:56:49;;;;;;;;;;;20.40;65.10;;;;;;5035522;28;1139;-66
2021/06/07 04:59:14;;;;;;;;;;;20.40;65.10;;;;;;5036096;28;1137;-66
2021/06/07 05:01:40;;;;;;;;;;;20.40;65.10;;;;;;5035290;28;1215;-66
2021/06/07 05:04:05;;;;;;;;;;;20.40;65.20;;;;;;5035071;28;1142;-65
2021/06/07 05:06:30;;;;;;;;;;;20.40;65.20;;;;;;5035343;28;1103;-65
2021/06/07 05:08:56;;;;;;;;;;;20.40;65.20;;;;;;5035368;28;1138;-65
2021/06/07 05:11:21;;;;;;;;;;;20.40;65.20;;;;;;5035124;28;1898;-66
2021/06/07 05:13:47;;;;;;;;;;;20.40;65.20;;;;;;5035230;28;1071;-66
2021/06/07 05:16:12;;;;;;;;;;;20.40;65.20;;;;;;5034530;28;1194;-66
2021/06/07 05:18:38;;;;;;;;;;;20.40;65.20;;;;;;5035068;28;1075;-65
2021/06/07 05:21:04;;;;;;;;;;;20.40;65.20;;;;;;5040273;28;1468;-66
2021/06/07 05:23:29;;;;;;;;;;;20.40;65.20;;;;;;5033569;28;1143;-67
2021/06/07 05:25:54;;;;;;;;;;;20.40;65.20;;;;;;5033841;28;1116;-65
2021/06/07 05:28:20;;;;;;;;;;;20.40;65.20;;;;;;5035009;28;1103;-65
2021/06/07 05:30:46;;;;;;;;;;;20.40;65.20;;;;;;5037444;28;1910;-66
2021/06/07 05:33:11;;;;;;;;;;;20.40;65.10;;;;;;5042107;28;1271;-65
2021/06/07 05:35:38;;;;;;;;;;;20.40;65.20;;;;;;5034855;28;1115;-65
2021/06/07 05:38:04;;;;;;;;;;;20.40;65.20;;;;;;5034797;28;1118;-66
2021/06/07 05:40:31;;;;;;;;;;;20.40;65.20;;;;;;5034758;28;1075;-68
2021/06/07 05:42:56;;;;;;;;;;;20.40;65.20;;;;;;5033283;28;1179;-65
2021/06/07 05:45:22;;;;;;;;;;;20.40;65.20;;;;;;5033345;28;1183;-67
2021/06/07 05:47:48;;;;;;;;;;;20.40;65.20;;;;;;5033276;28;1076;-65
2021/06/07 05:50:16;;;;;;;;;;;20.40;65.10;;;;;;5034681;28;1918;-66
2021/06/07 05:52:47;;;;;;;;;;;20.40;65.50;;;;;;5034534;28;1281;-65
2021/06/07 05:55:16;;;;;;;;;;;20.40;64.90;;;;;;5017693;28;1477;-66
2021/06/07 05:57:42;;;;;;;;;;;20.30;64.00;;;;;;5033405;28;1119;-67
2021/06/07 06:00:08;;;;;;;;;;;20.30;63.50;;;;;;5033244;28;1120;-65
2021/06/07 06:02:33;;;;;;;;;;;20.30;63.50;;;;;;5030967;28;1704;-67
2021/06/07 06:04:59;;;;;;;;;;;20.30;63.50;;;;;;5031189;28;2283;-65
2021/06/07 06:07:24;;;;;;;;;;;20.30;63.60;;;;;;5044234;28;1074;-64
2021/06/07 06:09:50;;;;;;;;;;;20.30;63.60;;;;;;5040262;28;1947;-64
2021/06/07 06:12:15;;;;;;;;;;;20.30;63.60;;;;;;5057739;23;1950;-70
2021/06/07 06:14:40;;;;;;;;;;;20.30;63.70;;;;;;5047451;28;947;-68
2021/06/07 06:17:06;;;;;;;;;;;20.30;63.80;;;;;;5053016;28;1079;-71
2021/06/07 06:19:31;;;;;;;;;;;20.30;63.80;;;;;;5053313;28;1048;-71
2021/06/07 06:22:00;;;;;;;;;;;20.40;64.00;;;;;;5040509;28;1349;-71
2021/06/07 06:24:25;;;;;;;;;;;20.40;64.00;;;;;;5052289;28;1119;-71
2021/06/07 06:26:51;;;;;;;;;;;20.30;64.00;;;;;;5052502;28;1063;-71
2021/06/07 06:29:16;;;;;;;;;;;20.40;64.10;;;;;;5051437;28;1186;-71
2021/06/07 06:31:42;;;;;;;;;;;20.30;64.10;;;;;;5051845;28;1976;-70
2021/06/07 06:34:07;;;;;;;;;;;20.40;64.30;;;;;;5052551;28;1123;-72
2021/06/07 06:36:33;;;;;;;;;;;20.30;64.20;;;;;;5053372;28;1067;-72
2021/06/07 06:39:01;;;;;;;;;;;20.30;64.30;;;;;;5046345;28;2157;-72
2021/06/07 06:41:28;;;;;;;;;;;20.30;64.30;;;;;;5063892;28;1369;-72
2021/06/07 06:43:54;;;;;;;;;;;20.30;64.40;;;;;;5050844;28;1355;-72
2021/06/07 06:46:19;;;;;;;;;;;20.30;64.40;;;;;;5053235;28;1067;-72
2021/06/07 06:48:45;;;;;;;;;;;20.30;64.40;;;;;;5053195;28;1146;-72
2021/06/07 06:51:11;;;;;;;;;;;20.30;64.20;;;;;;5052656;28;1953;-72
2021/06/07 06:53:36;;;;;;;;;;;20.30;64.50;;;;;;5050961;28;1024;-73
2021/06/07 06:56:02;;;;;;;;;;;20.30;64.50;;;;;;5053062;28;1063;-72
2021/06/07 06:58:27;;;;;;;;;;;20.30;64.50;;;;;;5040692;28;1167;-72
2021/06/07 07:00:52;;;;;;;;;;;20.30;64.50;;;;;;5043377;28;1223;-72
2021/06/07 07:03:19;;;;;;;;;;;20.30;64.50;;;;;;5045010;28;1294;-71
2021/06/07 07:05:44;;;;;;;;;;;20.30;64.50;;;;;;5039766;28;1196;-72
2021/06/07 07:08:10;;;;;;;;;;;20.40;65.70;;;;;;5045139;28;1099;-72
2021/06/07 07:10:36;;;;;;;;;;;20.40;65.50;;;;;;5043283;28;1938;-72
2021/06/07 07:13:01;;;;;;;;;;;20.40;65.70;;;;;;5043293;28;1355;-72
2021/06/07 07:15:26;;;;;;;;;;;20.40;65.90;;;;;;5042046;28;1175;-72
2021/06/07 07:17:52;;;;;;;;;;;20.40;65.80;;;;;;5047227;28;3793;-72
2021/06/07 07:20:17;;;;;;;;;;;20.40;65.80;;;;;;5041333;28;1235;-72
2021/06/07 07:22:43;;;;;;;;;;;20.50;65.80;;;;;;5050071;28;1391;-72
2021/06/07 07:25:09;;;;;;;;;;;20.50;66.20;;;;;;5052280;28;1201;-71
2021/06/07 07:27:36;;;;;;;;;;;20.50;66.30;;;;;;5050897;28;1080;-72
2021/06/07 07:30:02;;;;;;;;;;;20.50;66.10;;;;;;5052714;28;1965;-72
2021/06/07 07:32:28;;;;;;;;;;;20.60;66.10;;;;;;5052139;28;1306;-72
2021/06/07 07:34:54;;;;;;;;;;;20.50;66.20;;;;;;5051221;28;1047;-73
2021/06/07 07:37:19;;;;;;;;;;;20.60;66.20;;;;;;5052198;28;1098;-72
2021/06/07 07:39:45;;;;;;;;;;;20.60;66.30;;;;;;5051903;28;1087;-72
2021/06/07 07:42:10;;;;;;;;;;;20.60;66.40;;;;;;5051914;28;1236;-72
2021/06/07 07:44:36;;;;;;;;;;;20.60;66.50;;;;;;5051497;28;1142;-71
2021/06/07 07:47:02;;;;;;;;;;;20.60;66.80;;;;;;5051042;28;1119;-71
2021/06/07 07:49:27;;;;;;;;;;;20.60;67.00;;;;;;5050884;28;1099;-71
2021/06/07 07:51:53;;;;;;;;;;;20.60;67.20;;;;;;5051654;28;1898;-70
2021/06/07 07:54:18;;;;;;;;;;;20.60;67.30;;;;;;5029899;28;1187;-71
2021/06/07 07:56:44;;;;;;;;;;;20.60;67.50;;;;;;5049938;28;1048;-71
2021/06/07 07:59:09;;;;;;;;;;;20.60;67.70;;;;;;5052026;28;1095;-70
2021/06/07 08:01:35;;;;;;;;;;;20.60;67.80;;;;;;5052120;28;1289;-71
2021/06/07 08:04:00;;;;;;;;;;;20.60;68.00;;;;;;5051415;28;1079;-71
2021/06/07 08:06:26;;;;;;;;;;;20.70;68.20;;;;;;5052100;28;1182;-71
2021/06/07 08:08:51;;;;;;;;;;;20.60;69.00;;;;;;5052043;28;1059;-70
2021/06/07 08:11:17;;;;;;;;;;;20.60;68.50;;;;;;5051798;28;1955;-71
2021/06/07 08:13:42;;;;;;;;;;;20.60;68.60;;;;;;5051877;28;1078;-71
2021/06/07 08:16:08;;;;;;;;;;;20.60;68.60;;;;;;5052032;28;1233;-71
2021/06/07 08:18:33;;;;;;;;;;;20.70;68.80;;;;;;5051684;28;1157;-71
2021/06/07 08:20:59;;;;;;;;;;;20.60;68.90;;;;;;5052006;28;1043;-71
2021/06/07 08:23:24;;;;;;;;;;;20.70;68.90;;;;;;5051009;28;1157;-72
2021/06/07 08:25:49;;;;;;;;;;;20.60;69.00;;;;;;5051315;28;1091;-72
2021/06/07 08:28:15;;;;;;;;;;;20.70;69.00;;;;;;5050895;28;1196;-71
2021/06/07 08:30:40;;;;;;;;;;;20.70;69.10;;;;;;5051738;28;1957;-71
2021/06/07 08:33:06;;;;;;;;;;;20.60;69.00;;;;;;5051296;28;1283;-71
2021/06/07 08:35:31;;;;;;;;;;;20.70;69.00;;;;;;5050564;28;1174;-71
2021/06/07 08:37:57;;;;;;;;;;;20.70;68.80;;;;;;5051613;28;1051;-72
2021/06/07 08:40:22;;;;;;;;;;;20.70;68.90;;;;;;5051952;28;932;-71
2021/06/07 08:42:48;;;;;;;;;;;20.70;68.80;;;;;;5033018;28;1431;-71
2021/06/07 08:45:15;;;;;;;;;;;20.70;68.90;;;;;;5052050;28;1138;-71
2021/06/07 08:47:40;;;;;;;;;;;20.70;69.00;;;;;;5050283;28;1071;-71
2021/06/07 08:50:06;;;;;;;;;;;20.70;68.90;;;;;;5050942;28;1898;-71
2021/06/07 08:52:31;;;;;;;;;;;20.70;68.90;;;;;;5054333;28;1287;-71
2021/06/07 08:54:57;;;;;;;;;;;20.70;68.70;;;;;;5054349;28;1047;-71
2021/06/07 08:57:22;;;;;;;;;;;20.70;68.70;;;;;;5054882;28;1055;-71
2021/06/07 08:59:48;;;;;;;;;;;20.70;68.70;;;;;;5053905;28;1007;-71
2021/06/07 09:02:13;;;;;;;;;;;20.70;68.70;;;;;;5055407;28;1288;-71
2021/06/07 09:05:05;;;;;;;;;;;20.70;68.80;;;;;;5054501;28;1174;-71
2021/06/07 09:07:31;;;;;;;;;;;20.70;68.90;;;;;;5051736;28;1142;-71
2021/06/07 09:10:22;;;;;;;;;;;20.70;69.10;;;;;;5054270;28;1961;-71
2021/06/07 09:12:51;;;;;;;;;;;20.70;69.10;;;;;;5054595;28;1284;-73
2021/06/07 09:15:33;;;;;;;;;;;20.70;69.30;;;;;;5052726;28;1252;-72
2021/06/07 09:17:59;;;;;;;;;;;20.70;69.50;;;;;;5053098;28;1040;-71
2021/06/07 09:20:24;;;;;;;;;;;20.70;69.90;;;;;;5053430;28;1127;-71
2021/06/07 09:22:57;;;;;;;;;;;20.70;70.00;;;;;;5040324;28;1298;-72
2021/06/07 09:25:23;;;;;;;;;;;20.70;70.10;;;;;;5054509;28;1040;-72
2021/06/07 09:28:07;;;;;;;;;;;20.70;70.20;;;;;;5053526;28;1080;-72
2021/06/07 09:30:33;;;;;;;;;;;20.70;70.20;;;;;;5054446;28;1965;-72
2021/06/07 09:33:37;;;;;;;;;;;20.70;70.10;;;;;;5053305;28;1274;-73
2021/06/07 09:36:05;;;;;;;;;;;20.70;70.20;;;;;;4992612;28;1167;-72
2021/06/07 09:38:31;;;;;;;;;;;20.80;71.00;;;;;;4979571;28;1104;-72
2021/06/07 09:41:00;;;;;;;;;;;20.70;71.20;;;;;;5010590;28;1111;-72
2021/06/07 09:43:25;;;;;;;;;;;20.70;71.50;;;;;;5051629;28;1209;-72
2021/06/07 09:45:55;;;;;;;;;;;20.80;71.50;;;;;;5054526;28;1023;-72
2021/06/07 09:48:26;;;;;;;;;;;20.80;71.40;;;;;;5052717;28;1170;-72
2021/06/07 09:50:55;;;;;;;;;;;20.80;71.40;;;;;;5053746;28;1969;-72
2021/06/07 09:53:39;;;;;;;;;;;20.80;71.30;;;;;;5053108;28;1315;-72
2021/06/07 09:56:05;;;;;;;;;;;20.80;71.20;;;;;;5053764;28;1095;-72
2021/06/07 09:58:31;;;;;;;;;;;20.80;71.20;;;;;;5053907;28;1146;-72
2021/06/07 10:00:56;;;;;;;;;;;20.80;71.00;;;;;;5053616;28;1110;-72
2021/06/07 10:03:23;;;;;;;;;;;20.80;71.00;;;;;;5051483;28;1200;-73
2021/06/07 10:05:49;;;;;;;;;;;20.80;70.80;;;;;;5052511;28;1083;-72
2021/06/07 10:08:15;;;;;;;;;;;20.80;70.80;;;;;;5052364;28;1123;-73
2021/06/07 10:10:40;;;;;;;;;;;20.80;70.80;;;;;;5053246;28;1959;-73
2021/06/07 10:13:06;;;;;;;;;;;20.80;70.40;;;;;;5034727;28;1210;-73
2021/06/07 10:15:36;;;;;;;;;;;20.80;70.40;;;;;;5039517;28;1129;-72
2021/06/07 10:18:02;;;;;;;;;;;20.80;70.50;;;;;;5052960;28;1234;-72
2021/06/07 10:22:56;;;;;;;;;;;20.80;70.50;;;;;;5039923;28;1291;-73
2021/06/07 10:25:21;;;;;;;;;;;20.80;70.40;;;;;;5053187;28;1083;-73
2021/06/07 10:27:47;;;;;;;;;;;20.80;70.40;;;;;;5053105;28;1059;-73
2021/06/07 10:30:14;;;;;;;;;;;20.80;70.10;;;;;;5049668;28;1957;-74
2021/06/07 10:32:40;;;;;;;;;;;20.80;70.10;;;;;;5051254;28;1279;-75
2021/06/07 10:35:05;;;;;;;;;;;20.80;70.00;;;;;;5051058;28;1133;-74
2021/06/07 10:37:32;;;;;;;;;;;20.80;69.70;;;;;;5051693;28;1095;-73
2021/06/07 10:40:15;;;;;;;;;;;20.90;69.90;;;;;;5049759;28;2023;-75
2021/06/07 10:42:59;;;;;;;;;;;20.90;69.80;;;;;;5050398;28;1490;-74
2021/06/07 10:45:27;;;;;;;;;;;20.90;69.80;;;;;;5051530;28;1139;-75
2021/06/07 10:47:53;;;;;;;;;;;20.90;69.60;;;;;;5052894;28;1071;-75
2021/06/07 10:50:22;;;;;;;;;;;20.90;69.70;;;;;;5051926;28;1946;-74
2021/06/07 10:52:53;;;;;;;;;;;20.90;69.50;;;;;;5050406;28;1222;-74
2021/06/07 10:55:21;;;;;;;;;;;20.90;69.50;;;;;;5053023;28;1115;-74
2021/06/07 10:57:48;;;;;;;;;;;20.90;69.80;;;;;;5052418;28;1098;-71
2021/06/07 11:00:16;;;;;;;;;;;20.90;69.80;;;;;;5043096;28;1972;-72
2021/06/07 11:02:42;;;;;;;;;;;20.90;69.80;;;;;;5051925;28;1200;-71
2021/06/07 11:05:18;;;;;;;;;;;20.90;70.00;;;;;;5050610;28;859;-72
2021/06/07 11:08:25;;;;;;;;;;;20.90;70.00;;;;;;5050820;28;1071;-72
2021/06/07 11:11:00;;;;;;;;;;;20.90;70.00;;;;;;5009834;28;1898;-72
2021/06/07 11:13:29;;;;;;;;;;;20.90;69.90;;;;;;4991959;28;1266;-71
2021/06/07 11:15:55;;;;;;;;;;;20.90;69.80;;;;;;5024987;28;1215;-74
2021/06/07 11:18:27;;;;;;;;;;;20.90;69.70;;;;;;5050308;28;1060;-73
2021/06/07 11:21:07;;;;;;;;;;;20.90;69.80;;;;;;5051187;28;1083;-70
2021/06/07 11:23:42;;;;;;;;;;;20.90;69.70;;;;;;5049844;28;1354;-72
2021/06/07 11:26:09;;;;;;;;;;;20.90;69.90;;;;;;5050830;28;1055;-70
2021/06/07 11:28:37;;;;;;;;;;;20.90;70.00;;;;;;5050252;28;1087;-68
2021/06/07 11:31:03;;;;;;;;;;;20.80;69.80;;;;;;5050502;28;1898;-73
2021/06/07 11:33:29;;;;;;;;;;;20.90;69.90;;;;;;5049858;28;1414;-73
2021/06/07 11:35:54;;;;;;;;;;;20.80;69.90;;;;;;5050338;28;1064;-72
2021/06/07 11:38:32;;;;;;;;;;;20.90;70.00;;;;;;5052073;28;1051;-69
2021/06/07 11:40:58;;;;;;;;;;;20.80;70.00;;;;;;5043995;28;1013;-72
2021/06/07 11:43:42;;;;;;;;;;;20.90;69.90;;;;;;5050927;28;1631;-71
2021/06/07 11:46:07;;;;;;;;;;;20.90;70.10;;;;;;5051199;28;1097;-71
2021/06/07 11:48:52;;;;;;;;;;;20.90;70.20;;;;;;5048389;28;981;-72
2021/06/07 11:51:26;;;;;;;;;;;20.90;70.10;;;;;;5051709;28;1902;-72
2021/06/07 11:53:52;;;;;;;;;;;20.90;70.20;;;;;;5050047;28;1346;-71
2021/06/07 11:56:20;;;;;;;;;;;20.90;70.00;;;;;;5050653;28;1091;-72
2021/06/07 11:58:46;;;;;;;;;;;20.90;70.00;;;;;;5050120;28;1072;-72
2021/06/07 12:01:12;;;;;;;;;;;20.90;70.00;;;;;;5051332;28;1373;-71
2021/06/07 12:03:37;;;;;;;;;;;20.90;69.90;;;;;;5050861;28;1426;-71
2021/06/07 12:06:06;;;;;;;;;;;20.90;69.40;;;;;;5050570;28;1762;-71
2021/06/07 12:08:32;;;;;;;;;;;20.90;68.40;;;;;;5051199;28;1398;-71
2021/06/07 12:10:58;;;;;;;;;;;21.00;64.00;;;;;;5050617;28;1894;-71
2021/06/07 12:13:23;;;;;;;;;;;21.10;60.00;;;;;;5050222;28;1212;-71
2021/06/07 12:15:50;;;;;;;;;;;21.10;61.40;;;;;;5049852;28;1201;-71
2021/06/07 12:18:26;;;;;;;;;;;21.20;62.10;;;;;;5041739;28;1195;-71
2021/06/07 12:20:52;;;;;;;;;;;21.20;63.00;;;;;;5044372;28;1188;-71
2021/06/07 12:23:19;;;;;;;;;;;21.10;63.60;;;;;;5042221;28;1280;-72
2021/06/07 12:28:28;;;;;;;;;;;21.00;62.40;;;;;;5054424;28;1111;-69
2021/06/07 12:30:54;;;;;;;;;;;21.00;63.80;;;;;;5054486;28;1936;-69
2021/06/07 12:33:26;;;;;;;;;;;21.00;63.70;;;;;;5053338;28;1609;-70
2021/06/07 12:35:53;;;;;;;;;;;21.00;63.10;;;;;;5050211;28;927;-69
2021/06/07 12:38:18;;;;;;;;;;;21.00;60.50;;;;;;5055071;28;1158;-69
2021/06/07 12:40:45;;;;;;;;;;;21.00;59.70;;;;;;5053557;28;1094;-69
2021/06/07 12:43:21;;;;;;;;;;;21.00;60.10;;;;;;5053093;28;1318;-69
2021/06/07 12:45:49;;;;;;;;;;;21.00;61.50;;;;;;5054438;28;1082;-68
2021/06/07 12:48:19;;;;;;;;;;;21.00;60.60;;;;;;5054313;28;1070;-70
2021/06/07 12:50:52;;;;;;;;;;;21.00;60.70;;;;;;5054826;28;1936;-69
2021/06/07 12:53:21;;;;;;;;;;;21.00;61.50;;;;;;5053714;28;1247;-71
2021/06/07 12:55:47;;;;;;;;;;;21.00;62.40;;;;;;5053545;28;1524;-71
2021/06/07 12:58:16;;;;;;;;;;;21.00;57.50;;;;;;5053209;28;1150;-71
2021/06/07 13:00:43;;;;;;;;;;;21.00;57.30;;;;;;5054264;28;1285;-71
2021/06/07 13:03:19;;;;;;;;;;;21.00;60.00;;;;;;5052380;28;1266;-71
2021/06/07 13:05:44;;;;;;;;;;;21.00;60.10;;;;;;5053730;28;1113;-71
2021/06/07 13:08:14;;;;;;;;;;;21.00;58.00;;;;;;5053253;28;1222;-70
2021/06/07 13:10:39;;;;;;;;;;;21.00;59.00;;;;;;5052479;28;1961;-71
2021/06/07 13:13:05;;;;;;;;;;;20.90;57.80;;;;;;5053510;28;1185;-72
2021/06/07 13:15:30;;;;;;;;;;;20.90;58.60;;;;;;5040037;28;1274;-72
2021/06/07 13:18:05;;;;;;;;;;;20.90;58.00;;;;;;5048441;28;1096;-71
2021/06/07 13:20:32;;;;;;;;;;;20.90;57.70;;;;;;5054066;28;1114;-70
2021/06/07 13:22:57;;;;;;;;;;;20.90;58.20;;;;;;5053560;28;1272;-71
2021/06/07 13:25:27;;;;;;;;;;;20.90;57.10;;;;;;5052943;28;1071;-71
2021/06/07 13:27:52;;;;;;;;;;;20.90;57.70;;;;;;5054093;28;992;-70
2021/06/07 13:30:18;;;;;;;;;;;20.90;56.00;;;;;;5053229;28;1898;-71
2021/06/07 13:32:44;;;;;;;;;;;20.90;57.80;;;;;;5035893;28;1365;-71
2021/06/07 13:35:13;;;;;;;;;;;20.90;58.20;;;;;;5052746;28;1112;-71
2021/06/07 13:37:38;;;;;;;;;;;20.90;58.20;;;;;;5051704;28;1084;-70
2021/06/07 13:40:37;;;;;;;;;;;20.90;57.00;;;;;;5053654;28;1121;-69
2021/06/07 13:43:05;;;;;;;;;;;20.90;54.90;;;;;;5010903;28;1285;-73
2021/06/07 13:45:35;;;;;;;;;;;20.90;56.40;;;;;;5052647;28;1174;-72
2021/06/07 13:48:21;;;;;;;;;;;21.00;56.00;;;;;;5053065;28;1055;-71
2021/06/07 13:50:54;;;;;;;;;;;21.00;56.50;;;;;;5040679;28;1893;-72
2021/06/07 13:53:20;;;;;;;;;;;21.00;56.10;;;;;;5041976;28;1631;-72
2021/06/07 13:55:46;;;;;;;;;;;21.00;56.20;;;;;;5043830;28;1314;-71
2021/06/07 13:58:15;;;;;;;;;;;21.00;56.50;;;;;;5043694;28;1270;-72
2021/06/07 14:00:41;;;;;;;;;;;21.00;56.70;;;;;;5048020;28;1381;-72
2021/06/07 14:03:08;;;;;;;;;;;20.90;56.20;;;;;;5050832;28;1330;-72
2021/06/07 14:05:34;;;;;;;;;;;21.00;57.00;;;;;;5053753;28;1435;-73
2021/06/07 14:07:59;;;;;;;;;;;21.00;56.30;;;;;;5052247;28;1067;-72
2021/06/07 14:10:24;;;;;;;;;;;21.00;56.30;;;;;;5054025;28;1906;-72
2021/06/07 14:12:50;;;;;;;;;;;21.00;56.10;;;;;;5052844;28;1341;-72
2021/06/07 14:15:16;;;;;;;;;;;21.00;56.20;;;;;;5053640;28;1209;-73
2021/06/07 14:17:41;;;;;;;;;;;21.00;55.90;;;;;;5053860;28;1102;-71
2021/06/07 14:20:07;;;;;;;;;;;21.10;54.80;;;;;;5052476;28;1162;-72
2021/06/07 14:25:16;;;;;;;;;;;21.10;57.00;;;;;;5052187;28;1123;-72
2021/06/07 14:27:42;;;;;;;;;;;21.10;56.60;;;;;;5053280;28;1154;-72
2021/06/07 14:30:08;;;;;;;;;;;21.10;56.70;;;;;;5053093;28;1955;-72
2021/06/07 14:32:33;;;;;;;;;;;21.10;56.10;;;;;;5051992;28;1298;-72
2021/06/07 14:34:59;;;;;;;;;;;21.00;55.80;;;;;;5052895;28;1051;-72
2021/06/07 14:37:24;;;;;;;;;;;21.10;55.60;;;;;;5053192;28;1201;-72
2021/06/07 14:39:50;;;;;;;;;;;21.00;55.20;;;;;;5051753;28;1561;-72